sensor_id;sensor_type;location;lat;lon;timestamp;P1;durP1;ratioP1;P2;durP2;ratioP2
37203;SDS011;23098;48.054;10.636;2022-07-10T00:02:08;8.07;;;3.85;;
37203;SDS011;23098;48.054;10.636;2022-07-10T00:04:33;4.53;;;4.10;;
37203;SDS011;23098;48.054;10.636;2022-07-10T00:06:59;7.95;;;4.03;;
37203;SDS011;23098;48.054;10.636;2022-07-10T00:09:26;6.68;;;3.80;;
37203;SDS011;23098;48.054;10.636;2022-07-10T00:11:53;8.30;;;4.65;;
37203;SDS011;23098;48.054;10.636;2022-07-10T00:14:18;4.72;;;4.15;;
37203;SDS011;23098;48.054;10.636;2022-07-10T00:16:45;6.57;;;4.93;;
37203;SDS011;23098;48.054;10.636;2022-07-10T00:19:10;6.63;;;3.92;;
37203;SDS011;23098;48.054;10.636;2022-07-10T00:21:36;9.68;;;5.18;;
37203;SDS011;23098;48.054;10.636;2022-07-10T00:24:02;5.40;;;4.70;;
37203;SDS011;23098;48.054;10.636;2022-07-10T00:26:28;5.85;;;4.63;;
37203;SDS011;23098;48.054;10.636;2022-07-10T00:28:53;4.72;;;4.25;;
37203;SDS011;23098;48.054;10.636;2022-07-10T00:31:20;6.32;;;4.70;;
37203;SDS011;23098;48.054;10.636;2022-07-10T00:33:45;7.75;;;4.30;;
37203;SDS011;23098;48.054;10.636;2022-07-10T00:36:11;5.78;;;4.40;;
37203;SDS011;23098;48.054;10.636;2022-07-10T00:38:36;5.68;;;5.07;;
37203;SDS011;23098;48.054;10.636;2022-07-10T00:41:02;5.60;;;4.90;;
37203;SDS011;23098;48.054;10.636;2022-07-10T00:43:27;5.45;;;4.95;;
37203;SDS011;23098;48.054;10.636;2022-07-10T00:45:53;5.32;;;4.82;;
37203;SDS011;23098;48.054;10.636;2022-07-10T00:48:18;6.95;;;4.88;;
37203;SDS011;23098;48.054;10.636;2022-07-10T00:50:44;6.13;;;5.30;;
37203;SDS011;23098;48.054;10.636;2022-07-10T00:53:13;5.22;;;4.72;;
37203;SDS011;23098;48.054;10.636;2022-07-10T00:55:39;5.75;;;4.95;;
37203;SDS011;23098;48.054;10.636;2022-07-10T00:58:06;7.63;;;5.45;;
37203;SDS011;23098;48.054;10.636;2022-07-10T01:00:34;5.78;;;5.18;;
37203;SDS011;23098;48.054;10.636;2022-07-10T01:03:02;5.95;;;5.32;;
37203;SDS011;23098;48.054;10.636;2022-07-10T01:05:28;5.90;;;4.95;;
37203;SDS011;23098;48.054;10.636;2022-07-10T01:07:54;5.93;;;5.43;;
37203;SDS011;23098;48.054;10.636;2022-07-10T01:10:19;5.70;;;5.20;;
37203;SDS011;23098;48.054;10.636;2022-07-10T01:12:45;6.57;;;5.05;;
37203;SDS011;23098;48.054;10.636;2022-07-10T01:15:11;6.93;;;5.47;;
37203;SDS011;23098;48.054;10.636;2022-07-10T01:17:37;6.18;;;5.03;;
37203;SDS011;23098;48.054;10.636;2022-07-10T01:20:06;5.18;;;4.68;;
37203;SDS011;23098;48.054;10.636;2022-07-10T01:22:33;5.30;;;4.80;;
37203;SDS011;23098;48.054;10.636;2022-07-10T01:24:59;6.55;;;5.15;;
37203;SDS011;23098;48.054;10.636;2022-07-10T01:27:24;5.30;;;4.80;;
37203;SDS011;23098;48.054;10.636;2022-07-10T01:29:50;6.68;;;4.70;;
37203;SDS011;23098;48.054;10.636;2022-07-10T01:32:17;6.38;;;5.05;;
37203;SDS011;23098;48.054;10.636;2022-07-10T01:34:43;5.10;;;4.53;;
37203;SDS011;23098;48.054;10.636;2022-07-10T01:37:08;4.65;;;4.25;;
37203;SDS011;23098;48.054;10.636;2022-07-10T01:39:34;4.90;;;4.50;;
37203;SDS011;23098;48.054;10.636;2022-07-10T01:41:59;5.05;;;4.53;;
37203;SDS011;23098;48.054;10.636;2022-07-10T01:44:25;5.32;;;4.82;;
37203;SDS011;23098;48.054;10.636;2022-07-10T01:46:51;5.60;;;4.95;;
37203;SDS011;23098;48.054;10.636;2022-07-10T01:49:16;6.50;;;5.38;;
37203;SDS011;23098;48.054;10.636;2022-07-10T01:51:42;5.80;;;4.85;;
37203;SDS011;23098;48.054;10.636;2022-07-10T01:54:08;5.38;;;4.88;;
37203;SDS011;23098;48.054;10.636;2022-07-10T01:56:33;5.65;;;4.78;;
37203;SDS011;23098;48.054;10.636;2022-07-10T01:58:59;6.72;;;5.22;;
37203;SDS011;23098;48.054;10.636;2022-07-10T02:01:26;7.03;;;5.22;;
37203;SDS011;23098;48.054;10.636;2022-07-10T02:03:52;6.53;;;5.07;;
37203;SDS011;23098;48.054;10.636;2022-07-10T02:06:36;5.95;;;5.35;;
37203;SDS011;23098;48.054;10.636;2022-07-10T02:09:02;5.40;;;4.82;;
37203;SDS011;23098;48.054;10.636;2022-07-10T02:11:27;5.40;;;4.68;;
37203;SDS011;23098;48.054;10.636;2022-07-10T02:13:53;5.50;;;5.00;;
37203;SDS011;23098;48.054;10.636;2022-07-10T02:16:18;10.93;;;5.15;;
37203;SDS011;23098;48.054;10.636;2022-07-10T02:18:44;5.35;;;4.53;;
37203;SDS011;23098;48.054;10.636;2022-07-10T02:21:09;5.63;;;4.47;;
37203;SDS011;23098;48.054;10.636;2022-07-10T02:23:35;5.30;;;4.80;;
37203;SDS011;23098;48.054;10.636;2022-07-10T02:26:01;6.00;;;5.07;;
37203;SDS011;23098;48.054;10.636;2022-07-10T02:28:27;5.80;;;4.88;;
37203;SDS011;23098;48.054;10.636;2022-07-10T02:30:53;5.28;;;4.78;;
37203;SDS011;23098;48.054;10.636;2022-07-10T02:33:18;5.30;;;4.78;;
37203;SDS011;23098;48.054;10.636;2022-07-10T02:35:44;6.47;;;4.75;;
37203;SDS011;23098;48.054;10.636;2022-07-10T02:38:10;9.55;;;4.93;;
37203;SDS011;23098;48.054;10.636;2022-07-10T02:40:35;7.82;;;4.82;;
37203;SDS011;23098;48.054;10.636;2022-07-10T02:43:01;5.85;;;5.25;;
37203;SDS011;23098;48.054;10.636;2022-07-10T02:45:26;6.53;;;5.60;;
37203;SDS011;23098;48.054;10.636;2022-07-10T02:47:52;7.95;;;5.90;;
37203;SDS011;23098;48.054;10.636;2022-07-10T02:50:17;6.80;;;5.60;;
37203;SDS011;23098;48.054;10.636;2022-07-10T02:52:43;6.43;;;5.75;;
37203;SDS011;23098;48.054;10.636;2022-07-10T02:55:08;6.97;;;6.35;;
37203;SDS011;23098;48.054;10.636;2022-07-10T02:57:34;6.63;;;6.00;;
37203;SDS011;23098;48.054;10.636;2022-07-10T02:59:59;8.57;;;6.63;;
37203;SDS011;23098;48.054;10.636;2022-07-10T03:02:25;9.10;;;6.43;;
37203;SDS011;23098;48.054;10.636;2022-07-10T03:04:51;10.15;;;6.63;;
37203;SDS011;23098;48.054;10.636;2022-07-10T03:07:17;9.20;;;6.40;;
37203;SDS011;23098;48.054;10.636;2022-07-10T03:09:42;7.07;;;6.28;;
37203;SDS011;23098;48.054;10.636;2022-07-10T03:12:09;7.18;;;6.47;;
37203;SDS011;23098;48.054;10.636;2022-07-10T03:14:36;6.55;;;5.95;;
37203;SDS011;23098;48.054;10.636;2022-07-10T03:17:02;6.97;;;6.28;;
37203;SDS011;23098;48.054;10.636;2022-07-10T03:19:27;7.13;;;6.43;;
37203;SDS011;23098;48.054;10.636;2022-07-10T03:21:53;9.35;;;6.03;;
37203;SDS011;23098;48.054;10.636;2022-07-10T03:24:18;7.65;;;5.90;;
37203;SDS011;23098;48.054;10.636;2022-07-10T03:26:44;6.95;;;6.25;;
37203;SDS011;23098;48.054;10.636;2022-07-10T03:29:10;6.88;;;6.18;;
37203;SDS011;23098;48.054;10.636;2022-07-10T03:31:35;6.95;;;6.22;;
37203;SDS011;23098;48.054;10.636;2022-07-10T03:34:01;7.05;;;6.35;;
37203;SDS011;23098;48.054;10.636;2022-07-10T03:36:26;7.10;;;5.97;;
37203;SDS011;23098;48.054;10.636;2022-07-10T03:38:52;10.20;;;6.00;;
37203;SDS011;23098;48.054;10.636;2022-07-10T03:41:18;10.98;;;6.03;;
37203;SDS011;23098;48.054;10.636;2022-07-10T03:43:44;7.03;;;6.32;;
37203;SDS011;23098;48.054;10.636;2022-07-10T03:46:09;8.57;;;6.88;;
37203;SDS011;23098;48.054;10.636;2022-07-10T03:48:35;6.60;;;5.93;;
37203;SDS011;23098;48.054;10.636;2022-07-10T03:51:00;8.50;;;6.00;;
37203;SDS011;23098;48.054;10.636;2022-07-10T03:53:26;7.68;;;6.40;;
37203;SDS011;23098;48.054;10.636;2022-07-10T03:55:52;8.23;;;7.15;;
37203;SDS011;23098;48.054;10.636;2022-07-10T03:58:19;9.35;;;6.53;;
37203;SDS011;23098;48.054;10.636;2022-07-10T04:00:44;7.97;;;6.60;;
37203;SDS011;23098;48.054;10.636;2022-07-10T04:03:10;6.90;;;6.20;;
37203;SDS011;23098;48.054;10.636;2022-07-10T04:05:35;6.57;;;5.97;;
37203;SDS011;23098;48.054;10.636;2022-07-10T04:08:02;7.53;;;6.47;;
37203;SDS011;23098;48.054;10.636;2022-07-10T04:10:29;7.50;;;6.05;;
37203;SDS011;23098;48.054;10.636;2022-07-10T04:12:56;6.95;;;6.10;;
37203;SDS011;23098;48.054;10.636;2022-07-10T04:15:21;6.35;;;5.70;;
37203;SDS011;23098;48.054;10.636;2022-07-10T04:17:47;7.38;;;5.88;;
37203;SDS011;23098;48.054;10.636;2022-07-10T04:20:14;9.63;;;6.25;;
37203;SDS011;23098;48.054;10.636;2022-07-10T04:22:40;6.75;;;6.05;;
37203;SDS011;23098;48.054;10.636;2022-07-10T04:25:06;7.32;;;6.10;;
37203;SDS011;23098;48.054;10.636;2022-07-10T04:27:32;7.45;;;5.53;;
37203;SDS011;23098;48.054;10.636;2022-07-10T04:29:58;6.75;;;5.75;;
37203;SDS011;23098;48.054;10.636;2022-07-10T04:32:23;6.63;;;6.00;;
37203;SDS011;23098;48.054;10.636;2022-07-10T04:34:49;7.68;;;6.50;;
37203;SDS011;23098;48.054;10.636;2022-07-10T04:37:15;6.45;;;5.75;;
37203;SDS011;23098;48.054;10.636;2022-07-10T04:39:41;7.10;;;5.70;;
37203;SDS011;23098;48.054;10.636;2022-07-10T04:42:07;8.30;;;5.95;;
37203;SDS011;23098;48.054;10.636;2022-07-10T04:44:33;6.78;;;6.18;;
37203;SDS011;23098;48.054;10.636;2022-07-10T04:46:59;6.97;;;5.90;;
37203;SDS011;23098;48.054;10.636;2022-07-10T04:49:24;7.97;;;5.47;;
37203;SDS011;23098;48.054;10.636;2022-07-10T04:51:50;7.50;;;5.78;;
37203;SDS011;23098;48.054;10.636;2022-07-10T04:54:16;8.40;;;6.53;;
37203;SDS011;23098;48.054;10.636;2022-07-10T04:56:42;7.53;;;6.05;;
37203;SDS011;23098;48.054;10.636;2022-07-10T04:59:07;8.43;;;5.82;;
37203;SDS011;23098;48.054;10.636;2022-07-10T05:01:34;9.32;;;6.18;;
37203;SDS011;23098;48.054;10.636;2022-07-10T05:04:00;6.80;;;6.07;;
37203;SDS011;23098;48.054;10.636;2022-07-10T05:06:26;7.90;;;6.63;;
37203;SDS011;23098;48.054;10.636;2022-07-10T05:08:51;6.60;;;5.90;;
37203;SDS011;23098;48.054;10.636;2022-07-10T05:11:18;6.63;;;5.47;;
37203;SDS011;23098;48.054;10.636;2022-07-10T05:13:44;8.65;;;6.20;;
37203;SDS011;23098;48.054;10.636;2022-07-10T05:16:11;8.02;;;6.22;;
37203;SDS011;23098;48.054;10.636;2022-07-10T05:18:38;10.27;;;6.63;;
37203;SDS011;23098;48.054;10.636;2022-07-10T05:21:05;7.65;;;6.35;;
37203;SDS011;23098;48.054;10.636;2022-07-10T05:23:30;6.93;;;6.10;;
37203;SDS011;23098;48.054;10.636;2022-07-10T05:25:56;7.15;;;6.15;;
37203;SDS011;23098;48.054;10.636;2022-07-10T05:28:22;8.13;;;7.10;;
37203;SDS011;23098;48.054;10.636;2022-07-10T05:30:47;9.48;;;6.97;;
37203;SDS011;23098;48.054;10.636;2022-07-10T05:33:14;7.70;;;6.78;;
37203;SDS011;23098;48.054;10.636;2022-07-10T05:35:40;7.68;;;6.82;;
37203;SDS011;23098;48.054;10.636;2022-07-10T05:38:05;7.65;;;6.93;;
37203;SDS011;23098;48.054;10.636;2022-07-10T05:40:31;9.80;;;7.13;;
37203;SDS011;23098;48.054;10.636;2022-07-10T05:42:56;8.20;;;6.85;;
37203;SDS011;23098;48.054;10.636;2022-07-10T05:45:22;9.82;;;6.90;;
37203;SDS011;23098;48.054;10.636;2022-07-10T05:47:48;8.50;;;6.60;;
37203;SDS011;23098;48.054;10.636;2022-07-10T05:50:13;10.70;;;6.55;;
37203;SDS011;23098;48.054;10.636;2022-07-10T05:52:39;8.02;;;6.35;;
37203;SDS011;23098;48.054;10.636;2022-07-10T05:55:05;8.18;;;6.32;;
37203;SDS011;23098;48.054;10.636;2022-07-10T05:57:32;7.40;;;6.38;;
37203;SDS011;23098;48.054;10.636;2022-07-10T05:59:58;9.82;;;6.07;;
37203;SDS011;23098;48.054;10.636;2022-07-10T06:02:24;8.35;;;6.05;;
37203;SDS011;23098;48.054;10.636;2022-07-10T06:04:49;7.20;;;5.47;;
37203;SDS011;23098;48.054;10.636;2022-07-10T06:07:15;9.13;;;5.97;;
37203;SDS011;23098;48.054;10.636;2022-07-10T06:09:41;7.03;;;5.82;;
37203;SDS011;23098;48.054;10.636;2022-07-10T06:12:07;6.55;;;5.95;;
37203;SDS011;23098;48.054;10.636;2022-07-10T06:14:33;10.18;;;5.13;;
37203;SDS011;23098;48.054;10.636;2022-07-10T06:16:59;6.43;;;5.10;;
37203;SDS011;23098;48.054;10.636;2022-07-10T06:19:24;8.23;;;5.93;;
37203;SDS011;23098;48.054;10.636;2022-07-10T06:21:50;6.78;;;5.47;;
37203;SDS011;23098;48.054;10.636;2022-07-10T06:24:35;5.15;;;4.65;;
37203;SDS011;23098;48.054;10.636;2022-07-10T06:27:01;6.13;;;4.90;;
37203;SDS011;23098;48.054;10.636;2022-07-10T06:29:27;4.97;;;4.20;;
37203;SDS011;23098;48.054;10.636;2022-07-10T06:31:52;5.05;;;4.50;;
37203;SDS011;23098;48.054;10.636;2022-07-10T06:34:18;7.18;;;4.72;;
37203;SDS011;23098;48.054;10.636;2022-07-10T06:36:44;5.97;;;4.70;;
37203;SDS011;23098;48.054;10.636;2022-07-10T06:39:10;5.63;;;4.55;;
37203;SDS011;23098;48.054;10.636;2022-07-10T06:41:35;8.15;;;4.47;;
37203;SDS011;23098;48.054;10.636;2022-07-10T06:44:00;8.18;;;4.90;;
37203;SDS011;23098;48.054;10.636;2022-07-10T06:46:27;8.35;;;4.90;;
37203;SDS011;23098;48.054;10.636;2022-07-10T06:48:52;9.70;;;5.10;;
37203;SDS011;23098;48.054;10.636;2022-07-10T06:51:18;6.05;;;5.45;;
37203;SDS011;23098;48.054;10.636;2022-07-10T06:53:44;11.07;;;5.50;;
37203;SDS011;23098;48.054;10.636;2022-07-10T06:56:10;6.40;;;5.30;;
37203;SDS011;23098;48.054;10.636;2022-07-10T06:58:35;6.78;;;5.70;;
37203;SDS011;23098;48.054;10.636;2022-07-10T07:01:01;6.78;;;5.07;;
37203;SDS011;23098;48.054;10.636;2022-07-10T07:03:26;5.72;;;5.13;;
37203;SDS011;23098;48.054;10.636;2022-07-10T07:05:52;6.85;;;5.25;;
37203;SDS011;23098;48.054;10.636;2022-07-10T07:08:17;6.28;;;5.25;;
37203;SDS011;23098;48.054;10.636;2022-07-10T07:10:43;9.25;;;5.20;;
37203;SDS011;23098;48.054;10.636;2022-07-10T07:13:09;6.43;;;5.20;;
37203;SDS011;23098;48.054;10.636;2022-07-10T07:15:35;7.93;;;5.35;;
37203;SDS011;23098;48.054;10.636;2022-07-10T07:18:03;7.22;;;5.05;;
37203;SDS011;23098;48.054;10.636;2022-07-10T07:20:41;6.45;;;4.85;;
37203;SDS011;23098;48.054;10.636;2022-07-10T07:23:25;7.03;;;4.35;;
37203;SDS011;23098;48.054;10.636;2022-07-10T07:25:51;6.32;;;4.80;;
37203;SDS011;23098;48.054;10.636;2022-07-10T07:28:16;5.00;;;3.90;;
37203;SDS011;23098;48.054;10.636;2022-07-10T07:30:44;7.80;;;4.25;;
37203;SDS011;23098;48.054;10.636;2022-07-10T07:33:11;5.47;;;4.38;;
37203;SDS011;23098;48.054;10.636;2022-07-10T07:35:36;6.68;;;3.92;;
37203;SDS011;23098;48.054;10.636;2022-07-10T07:38:03;4.78;;;3.80;;
37203;SDS011;23098;48.054;10.636;2022-07-10T07:40:28;8.43;;;4.05;;
37203;SDS011;23098;48.054;10.636;2022-07-10T07:42:55;8.18;;;4.05;;
37203;SDS011;23098;48.054;10.636;2022-07-10T07:45:22;5.60;;;3.92;;
37203;SDS011;23098;48.054;10.636;2022-07-10T07:47:49;6.78;;;3.65;;
37203;SDS011;23098;48.054;10.636;2022-07-10T07:50:19;4.80;;;3.58;;
37203;SDS011;23098;48.054;10.636;2022-07-10T07:52:47;7.35;;;4.25;;
37203;SDS011;23098;48.054;10.636;2022-07-10T07:55:14;8.00;;;3.85;;
37203;SDS011;23098;48.054;10.636;2022-07-10T07:57:41;5.10;;;3.83;;
37203;SDS011;23098;48.054;10.636;2022-07-10T08:00:07;4.95;;;4.25;;
37203;SDS011;23098;48.054;10.636;2022-07-10T08:02:34;9.90;;;4.00;;
37203;SDS011;23098;48.054;10.636;2022-07-10T08:05:00;4.05;;;3.55;;
37203;SDS011;23098;48.054;10.636;2022-07-10T08:08:00;5.85;;;3.78;;
37203;SDS011;23098;48.054;10.636;2022-07-10T08:10:20;4.72;;;3.22;;
37203;SDS011;23098;48.054;10.636;2022-07-10T08:12:48;3.72;;;3.25;;
37203;SDS011;23098;48.054;10.636;2022-07-10T08:15:15;3.60;;;3.28;;
37203;SDS011;23098;48.054;10.636;2022-07-10T08:17:41;5.57;;;3.40;;
37203;SDS011;23098;48.054;10.636;2022-07-10T08:20:09;5.15;;;3.30;;
37203;SDS011;23098;48.054;10.636;2022-07-10T08:22:36;4.00;;;2.80;;
37203;SDS011;23098;48.054;10.636;2022-07-10T08:25:02;6.03;;;3.03;;
37203;SDS011;23098;48.054;10.636;2022-07-10T08:27:28;7.40;;;3.28;;
37203;SDS011;23098;48.054;10.636;2022-07-10T08:29:54;4.47;;;2.92;;
37203;SDS011;23098;48.054;10.636;2022-07-10T08:32:19;5.07;;;3.08;;
37203;SDS011;23098;48.054;10.636;2022-07-10T08:34:45;7.15;;;2.80;;
37203;SDS011;23098;48.054;10.636;2022-07-10T08:37:11;3.95;;;2.45;;
37203;SDS011;23098;48.054;10.636;2022-07-10T08:39:36;3.72;;;2.50;;
37203;SDS011;23098;48.054;10.636;2022-07-10T08:42:04;3.15;;;2.38;;
37203;SDS011;23098;48.054;10.636;2022-07-10T08:44:31;2.78;;;2.22;;
37203;SDS011;23098;48.054;10.636;2022-07-10T08:46:57;2.88;;;2.08;;
37203;SDS011;23098;48.054;10.636;2022-07-10T08:49:27;10.30;;;2.58;;
37203;SDS011;23098;48.054;10.636;2022-07-10T08:52:04;7.45;;;2.38;;
37203;SDS011;23098;48.054;10.636;2022-07-10T08:54:31;2.78;;;2.55;;
37203;SDS011;23098;48.054;10.636;2022-07-10T08:56:59;3.33;;;2.20;;
37203;SDS011;23098;48.054;10.636;2022-07-10T08:59:26;4.15;;;2.10;;
37203;SDS011;23098;48.054;10.636;2022-07-10T09:01:52;4.72;;;2.03;;
37203;SDS011;23098;48.054;10.636;2022-07-10T09:04:22;5.68;;;2.28;;
37203;SDS011;23098;48.054;10.636;2022-07-10T09:06:50;5.40;;;2.40;;
37203;SDS011;23098;48.054;10.636;2022-07-10T09:09:16;4.35;;;2.17;;
37203;SDS011;23098;48.054;10.636;2022-07-10T09:11:43;3.33;;;2.30;;
37203;SDS011;23098;48.054;10.636;2022-07-10T09:14:09;7.72;;;2.40;;
37203;SDS011;23098;48.054;10.636;2022-07-10T09:16:39;3.80;;;2.27;;
37203;SDS011;23098;48.054;10.636;2022-07-10T09:19:16;5.07;;;2.53;;
37203;SDS011;23098;48.054;10.636;2022-07-10T09:21:42;5.63;;;2.55;;
37203;SDS011;23098;48.054;10.636;2022-07-10T09:24:08;7.18;;;2.40;;
37203;SDS011;23098;48.054;10.636;2022-07-10T09:26:37;5.35;;;2.30;;
37203;SDS011;23098;48.054;10.636;2022-07-10T09:29:10;4.38;;;2.30;;
37203;SDS011;23098;48.054;10.636;2022-07-10T09:31:49;4.65;;;2.22;;
37203;SDS011;23098;48.054;10.636;2022-07-10T09:42:24;5.32;;;2.33;;
37203;SDS011;23098;48.054;10.636;2022-07-10T09:47:38;3.10;;;2.10;;
37203;SDS011;23098;48.054;10.636;2022-07-10T09:50:04;3.88;;;2.33;;
37203;SDS011;23098;48.054;10.636;2022-07-10T09:52:45;4.68;;;2.20;;
37203;SDS011;23098;48.054;10.636;2022-07-10T09:55:11;3.58;;;1.92;;
37203;SDS011;23098;48.054;10.636;2022-07-10T09:57:38;4.85;;;2.05;;
37203;SDS011;23098;48.054;10.636;2022-07-10T10:00:08;2.92;;;1.85;;
37203;SDS011;23098;48.054;10.636;2022-07-10T10:02:35;2.88;;;1.75;;
37203;SDS011;23098;48.054;10.636;2022-07-10T10:05:01;4.47;;;2.10;;
37203;SDS011;23098;48.054;10.636;2022-07-10T10:07:26;4.40;;;1.92;;
37203;SDS011;23098;48.054;10.636;2022-07-10T10:09:52;4.38;;;2.22;;
37203;SDS011;23098;48.054;10.636;2022-07-10T10:14:56;3.10;;;1.90;;
37203;SDS011;23098;48.054;10.636;2022-07-10T10:17:24;3.10;;;2.03;;
37203;SDS011;23098;48.054;10.636;2022-07-10T10:19:51;4.03;;;2.13;;
37203;SDS011;23098;48.054;10.636;2022-07-10T10:22:46;2.83;;;1.70;;
37203;SDS011;23098;48.054;10.636;2022-07-10T10:25:14;6.90;;;2.00;;
37203;SDS011;23098;48.054;10.636;2022-07-10T10:27:42;4.10;;;1.90;;
37203;SDS011;23098;48.054;10.636;2022-07-10T10:30:08;1.67;;;1.52;;
37203;SDS011;23098;48.054;10.636;2022-07-10T10:32:39;4.47;;;1.55;;
37203;SDS011;23098;48.054;10.636;2022-07-10T10:35:05;7.18;;;2.05;;
37203;SDS011;23098;48.054;10.636;2022-07-10T10:37:37;3.50;;;1.55;;
37203;SDS011;23098;48.054;10.636;2022-07-10T10:40:06;2.95;;;1.58;;
37203;SDS011;23098;48.054;10.636;2022-07-10T10:48:05;2.13;;;1.40;;
37203;SDS011;23098;48.054;10.636;2022-07-10T10:50:38;2.45;;;1.50;;
37203;SDS011;23098;48.054;10.636;2022-07-10T10:53:20;5.10;;;1.38;;
37203;SDS011;23098;48.054;10.636;2022-07-10T10:58:25;3.20;;;1.52;;
37203;SDS011;23098;48.054;10.636;2022-07-10T11:01:05;3.88;;;1.55;;
37203;SDS011;23098;48.054;10.636;2022-07-10T11:06:44;3.10;;;1.40;;
37203;SDS011;23098;48.054;10.636;2022-07-10T11:09:27;5.03;;;1.75;;
37203;SDS011;23098;48.054;10.636;2022-07-10T11:12:04;2.20;;;1.48;;
37203;SDS011;23098;48.054;10.636;2022-07-10T11:14:32;2.05;;;1.25;;
37203;SDS011;23098;48.054;10.636;2022-07-10T11:17:05;5.78;;;1.60;;
37203;SDS011;23098;48.054;10.636;2022-07-10T11:19:33;3.92;;;1.50;;
37203;SDS011;23098;48.054;10.636;2022-07-10T11:30:17;4.38;;;1.48;;
37203;SDS011;23098;48.054;10.636;2022-07-10T11:32:43;3.10;;;1.52;;
37203;SDS011;23098;48.054;10.636;2022-07-10T11:35:12;4.05;;;1.40;;
37203;SDS011;23098;48.054;10.636;2022-07-10T11:37:53;3.22;;;1.25;;
37203;SDS011;23098;48.054;10.636;2022-07-10T11:40:19;3.50;;;1.15;;
37203;SDS011;23098;48.054;10.636;2022-07-10T11:42:49;1.77;;;1.20;;
37203;SDS011;23098;48.054;10.636;2022-07-10T11:45:22;2.92;;;1.20;;
37203;SDS011;23098;48.054;10.636;2022-07-10T11:47:48;1.75;;;1.10;;
37203;SDS011;23098;48.054;10.636;2022-07-10T11:50:13;2.17;;;1.20;;
37203;SDS011;23098;48.054;10.636;2022-07-10T11:52:40;3.65;;;1.33;;
37203;SDS011;23098;48.054;10.636;2022-07-10T11:55:15;2.70;;;1.30;;
37203;SDS011;23098;48.054;10.636;2022-07-10T11:57:43;2.97;;;1.30;;
37203;SDS011;23098;48.054;10.636;2022-07-10T12:00:46;4.82;;;1.20;;
37203;SDS011;23098;48.054;10.636;2022-07-10T12:03:20;2.85;;;1.20;;
37203;SDS011;23098;48.054;10.636;2022-07-10T12:05:46;3.67;;;1.50;;
37203;SDS011;23098;48.054;10.636;2022-07-10T12:08:15;3.05;;;1.17;;
37203;SDS011;23098;48.054;10.636;2022-07-10T12:10:41;2.58;;;1.20;;
37203;SDS011;23098;48.054;10.636;2022-07-10T12:15:43;1.92;;;1.20;;
37203;SDS011;23098;48.054;10.636;2022-07-10T12:18:20;1.48;;;1.17;;
37203;SDS011;23098;48.054;10.636;2022-07-10T12:20:48;1.80;;;1.20;;
37203;SDS011;23098;48.054;10.636;2022-07-10T12:23:17;1.83;;;1.00;;
37203;SDS011;23098;48.054;10.636;2022-07-10T12:25:44;2.60;;;1.15;;
37203;SDS011;23098;48.054;10.636;2022-07-10T12:28:15;2.10;;;1.05;;
37203;SDS011;23098;48.054;10.636;2022-07-10T12:30:42;5.03;;;1.60;;
37203;SDS011;23098;48.054;10.636;2022-07-10T12:33:22;3.22;;;1.30;;
37203;SDS011;23098;48.054;10.636;2022-07-10T12:35:55;3.40;;;1.30;;
37203;SDS011;23098;48.054;10.636;2022-07-10T12:38:22;2.60;;;1.13;;
37203;SDS011;23098;48.054;10.636;2022-07-10T12:41:11;2.42;;;1.30;;
37203;SDS011;23098;48.054;10.636;2022-07-10T12:43:38;2.53;;;1.20;;
37203;SDS011;23098;48.054;10.636;2022-07-10T12:46:11;2.88;;;1.20;;
37203;SDS011;23098;48.054;10.636;2022-07-10T12:48:42;4.70;;;1.55;;
37203;SDS011;23098;48.054;10.636;2022-07-10T12:51:32;2.88;;;1.10;;
37203;SDS011;23098;48.054;10.636;2022-07-10T12:54:09;1.15;;;1.05;;
37203;SDS011;23098;48.054;10.636;2022-07-10T12:56:57;6.82;;;1.10;;
37203;SDS011;23098;48.054;10.636;2022-07-10T12:59:23;4.82;;;1.33;;
37203;SDS011;23098;48.054;10.636;2022-07-10T13:01:49;2.22;;;1.10;;
37203;SDS011;23098;48.054;10.636;2022-07-10T13:04:15;5.45;;;1.23;;
37203;SDS011;23098;48.054;10.636;2022-07-10T13:06:49;3.85;;;1.20;;
37203;SDS011;23098;48.054;10.636;2022-07-10T13:09:21;1.50;;;0.95;;
37203;SDS011;23098;48.054;10.636;2022-07-10T13:11:49;2.83;;;1.30;;
37203;SDS011;23098;48.054;10.636;2022-07-10T13:14:16;2.33;;;1.35;;
37203;SDS011;23098;48.054;10.636;2022-07-10T13:16:41;2.30;;;1.10;;
37203;SDS011;23098;48.054;10.636;2022-07-10T13:19:07;2.55;;;1.20;;
37203;SDS011;23098;48.054;10.636;2022-07-10T13:21:32;3.13;;;1.50;;
37203;SDS011;23098;48.054;10.636;2022-07-10T13:23:58;3.38;;;1.10;;
37203;SDS011;23098;48.054;10.636;2022-07-10T13:26:24;3.00;;;1.30;;
37203;SDS011;23098;48.054;10.636;2022-07-10T13:28:49;6.57;;;1.30;;
37203;SDS011;23098;48.054;10.636;2022-07-10T13:31:15;2.63;;;1.20;;
37203;SDS011;23098;48.054;10.636;2022-07-10T13:33:40;1.85;;;1.10;;
37203;SDS011;23098;48.054;10.636;2022-07-10T13:36:06;2.05;;;1.20;;
37203;SDS011;23098;48.054;10.636;2022-07-10T13:38:31;2.25;;;1.30;;
37203;SDS011;23098;48.054;10.636;2022-07-10T13:40:58;1.80;;;1.30;;
37203;SDS011;23098;48.054;10.636;2022-07-10T13:43:24;2.72;;;1.20;;
37203;SDS011;23098;48.054;10.636;2022-07-10T13:45:56;2.67;;;1.10;;
37203;SDS011;23098;48.054;10.636;2022-07-10T13:48:22;3.17;;;1.33;;
37203;SDS011;23098;48.054;10.636;2022-07-10T13:50:49;2.00;;;1.30;;
37203;SDS011;23098;48.054;10.636;2022-07-10T13:53:15;2.67;;;1.05;;
37203;SDS011;23098;48.054;10.636;2022-07-10T13:55:41;4.30;;;1.15;;
37203;SDS011;23098;48.054;10.636;2022-07-10T13:58:07;1.80;;;1.27;;
37203;SDS011;23098;48.054;10.636;2022-07-10T14:00:34;1.35;;;1.17;;
37203;SDS011;23098;48.054;10.636;2022-07-10T14:03:00;2.83;;;1.30;;
37203;SDS011;23098;48.054;10.636;2022-07-10T14:05:25;2.20;;;1.20;;
37203;SDS011;23098;48.054;10.636;2022-07-10T14:07:51;1.63;;;1.13;;
37203;SDS011;23098;48.054;10.636;2022-07-10T14:10:17;2.55;;;1.10;;
37203;SDS011;23098;48.054;10.636;2022-07-10T14:12:42;2.28;;;1.33;;
37203;SDS011;23098;48.054;10.636;2022-07-10T14:15:08;1.48;;;1.00;;
37203;SDS011;23098;48.054;10.636;2022-07-10T14:17:34;1.98;;;1.20;;
37203;SDS011;23098;48.054;10.636;2022-07-10T14:19:59;3.35;;;1.33;;
37203;SDS011;23098;48.054;10.636;2022-07-10T14:22:25;1.70;;;1.00;;
37203;SDS011;23098;48.054;10.636;2022-07-10T14:24:51;3.15;;;1.23;;
37203;SDS011;23098;48.054;10.636;2022-07-10T14:27:18;3.75;;;1.15;;
37203;SDS011;23098;48.054;10.636;2022-07-10T14:29:44;1.55;;;1.10;;
37203;SDS011;23098;48.054;10.636;2022-07-10T14:32:10;2.05;;;1.13;;
37203;SDS011;23098;48.054;10.636;2022-07-10T14:34:35;2.17;;;1.25;;
37203;SDS011;23098;48.054;10.636;2022-07-10T14:37:02;4.70;;;1.10;;
37203;SDS011;23098;48.054;10.636;2022-07-10T14:39:28;1.80;;;1.10;;
37203;SDS011;23098;48.054;10.636;2022-07-10T14:41:53;1.73;;;1.10;;
37203;SDS011;23098;48.054;10.636;2022-07-10T14:44:19;1.95;;;1.10;;
37203;SDS011;23098;48.054;10.636;2022-07-10T14:46:44;3.83;;;1.13;;
37203;SDS011;23098;48.054;10.636;2022-07-10T14:49:10;3.40;;;1.20;;
37203;SDS011;23098;48.054;10.636;2022-07-10T14:51:35;2.42;;;1.20;;
37203;SDS011;23098;48.054;10.636;2022-07-10T14:54:01;2.38;;;1.40;;
37203;SDS011;23098;48.054;10.636;2022-07-10T14:56:27;2.50;;;1.33;;
37203;SDS011;23098;48.054;10.636;2022-07-10T14:58:53;1.83;;;1.10;;
37203;SDS011;23098;48.054;10.636;2022-07-10T15:01:19;3.25;;;1.17;;
37203;SDS011;23098;48.054;10.636;2022-07-10T15:03:46;7.07;;;1.45;;
37203;SDS011;23098;48.054;10.636;2022-07-10T15:06:11;2.25;;;1.30;;
37203;SDS011;23098;48.054;10.636;2022-07-10T15:08:37;1.38;;;0.93;;
37203;SDS011;23098;48.054;10.636;2022-07-10T15:11:02;3.47;;;1.10;;